createdAt,value
2022-10-15T00:01:16.956Z,1087.20
2022-10-15T00:03:45.259Z,1933.90
2022-10-15T00:06:16.584Z,1201.55
2022-10-15T00:08:43.933Z,280.23
2022-10-15T00:11:23.568Z,195.65
2022-10-15T00:13:56.208Z,97.88
2022-10-15T00:16:25.387Z,117.45
2022-10-15T00:18:55.149Z,178.70
2022-10-15T00:21:21.824Z,141.75
2022-10-15T00:23:49.555Z,112.15
2022-10-15T00:26:22.383Z,101.80
2022-10-15T00:31:06.253Z,397.30
2022-10-15T00:33:33.047Z,133.10
2022-10-15T00:36:12.126Z,243.35
2022-10-15T00:38:39.060Z,151.30
2022-10-15T00:41:07.852Z,276.23
2022-10-15T00:43:59.712Z,210.90
2022-10-15T00:46:35.287Z,134.30
2022-10-15T00:49:26.873Z,153.20
2022-10-15T00:52:00.851Z,169.97
2022-10-15T00:54:31.404Z,151.57
2022-10-15T00:56:58.397Z,143.88
2022-10-15T00:59:27.281Z,118.07
2022-10-15T01:01:54.724Z,130.15
2022-10-15T01:04:22.317Z,116.35
2022-10-15T01:06:48.914Z,123.75
2022-10-15T01:09:15.629Z,124.85
2022-10-15T01:11:51.053Z,117.97
2022-10-15T01:14:35.500Z,126.07
2022-10-15T01:17:20.104Z,117.47
2022-10-15T01:20:05.548Z,117.93
2022-10-15T01:22:50.856Z,111.45
2022-10-15T01:25:39.015Z,116.63
2022-10-15T01:28:17.572Z,108.78
2022-10-15T01:30:49.484Z,96.53
2022-10-15T01:33:44.324Z,90.72
2022-10-15T01:36:26.305Z,110.57
2022-10-15T01:39:02.095Z,113.53
2022-10-15T01:41:43.632Z,111.60
2022-10-15T01:44:20.412Z,115.78
2022-10-15T01:47:03.650Z,110.90
2022-10-15T01:49:34.255Z,110.75
2022-10-15T01:52:09.907Z,109.55
2022-10-15T01:54:37.291Z,116.25
2022-10-15T01:57:05.632Z,136.98
2022-10-15T01:59:34.920Z,138.40
2022-10-15T02:02:01.623Z,153.05
2022-10-15T02:04:31.208Z,148.00
2022-10-15T02:07:17.956Z,121.63
2022-10-15T02:10:05.882Z,133.98
2022-10-15T02:13:02.180Z,136.65
2022-10-15T02:15:48.246Z,125.07
2022-10-15T02:18:27.485Z,114.83
2022-10-15T02:21:06.816Z,116.68
2022-10-15T02:24:02.032Z,116.72
2022-10-15T02:26:30.308Z,104.93
2022-10-15T02:29:00.247Z,100.38
2022-10-15T02:31:31.155Z,104.18
2022-10-15T02:34:03.216Z,109.63
2022-10-15T02:37:02.385Z,107.88
2022-10-15T02:39:29.365Z,108.88
2022-10-15T02:41:57.526Z,111.18
2022-10-15T02:44:25.628Z,104.78
2022-10-15T02:46:52.214Z,106.68
2022-10-15T02:49:19.911Z,99.57
2022-10-15T02:51:48.588Z,108.32
2022-10-15T02:54:16.877Z,118.63
2022-10-15T02:56:46.499Z,112.18
2022-10-15T02:59:13.799Z,100.65
2022-10-15T03:01:40.340Z,115.30
2022-10-15T03:04:07.014Z,97.88
2022-10-15T03:06:34.066Z,106.10
2022-10-15T03:09:00.980Z,105.47
2022-10-15T03:11:29.662Z,98.72
2022-10-15T03:13:57.247Z,107.60
2022-10-15T03:16:23.956Z,99.55
2022-10-15T03:18:54.344Z,91.95
2022-10-15T03:21:21.226Z,84.90
2022-10-15T03:23:47.966Z,94.30
2022-10-15T03:26:18.823Z,98.20
2022-10-15T03:28:45.448Z,91.53
2022-10-15T03:31:18.320Z,94.43
2022-10-15T03:33:48.230Z,102.63
2022-10-15T03:36:16.361Z,92.13
2022-10-15T03:38:42.903Z,88.03
2022-10-15T03:41:13.118Z,76.18
2022-10-15T03:43:42.895Z,88.45
2022-10-15T03:46:10.407Z,95.10
2022-10-15T03:48:41.239Z,83.95
2022-10-15T03:51:10.030Z,98.65
2022-10-15T03:53:37.025Z,105.65
2022-10-15T03:56:05.848Z,98.28
2022-10-15T03:58:33.765Z,92.70
2022-10-15T04:01:09.966Z,94.28
2022-10-15T04:03:37.289Z,120.75
2022-10-15T04:06:04.152Z,105.55
2022-10-15T04:08:31.316Z,86.95
2022-10-15T04:10:59.304Z,77.18
2022-10-15T04:13:27.379Z,84.03
2022-10-15T04:15:58.189Z,93.35
2022-10-15T04:18:25.034Z,91.32
2022-10-15T04:20:54.760Z,102.70
2022-10-15T04:23:23.081Z,103.32
2022-10-15T04:26:08.382Z,100.70
2022-10-15T04:28:36.048Z,111.60
2022-10-15T04:31:03.364Z,123.05
2022-10-15T04:33:30.493Z,129.10
2022-10-15T04:36:12.065Z,120.32
2022-10-15T04:38:50.256Z,113.20
2022-10-15T04:41:26.239Z,108.28
2022-10-15T04:44:13.420Z,120.45
2022-10-15T04:46:43.660Z,133.18
2022-10-15T04:50:10.325Z,147.00
2022-10-15T04:52:55.489Z,124.10
2022-10-15T04:55:23.304Z,161.23
2022-10-15T04:57:51.830Z,157.02
2022-10-15T05:00:25.919Z,134.25
2022-10-15T05:05:03.433Z,114.03
2022-10-15T05:07:30.235Z,116.47
2022-10-15T05:09:57.856Z,128.23
2022-10-15T05:12:24.507Z,132.48
2022-10-15T05:14:52.433Z,121.25
2022-10-15T05:19:54.340Z,113.10
2022-10-15T05:22:25.913Z,125.77
2022-10-15T05:27:15.167Z,118.03
2022-10-15T05:29:42.452Z,124.47
2022-10-15T05:32:09.795Z,110.90
2022-10-15T05:34:36.571Z,119.07
2022-10-15T05:37:08.016Z,123.97
2022-10-15T05:39:34.583Z,111.35
2022-10-15T05:42:01.140Z,117.90
2022-10-15T05:44:40.862Z,127.63
2022-10-15T05:47:11.747Z,129.00
2022-10-15T05:49:39.088Z,118.75
2022-10-15T05:52:21.663Z,114.80
2022-10-15T05:55:17.608Z,113.35
2022-10-15T05:57:44.198Z,128.88
2022-10-15T06:00:11.274Z,108.22
2022-10-15T06:02:40.498Z,98.88
2022-10-15T06:05:07.476Z,97.70
2022-10-15T06:07:34.241Z,105.72
2022-10-15T06:10:05.573Z,89.70
2022-10-15T06:12:34.103Z,108.25
2022-10-15T06:15:00.588Z,103.78
2022-10-15T06:17:27.125Z,115.93
2022-10-15T06:19:53.653Z,108.80
2022-10-15T06:22:20.254Z,95.32
2022-10-15T06:24:46.777Z,92.90
2022-10-15T06:27:14.165Z,96.72
2022-10-15T06:29:40.929Z,98.50
2022-10-15T06:32:11.656Z,91.85
2022-10-15T06:34:42.892Z,90.80
2022-10-15T06:37:09.460Z,89.40
2022-10-15T06:39:35.993Z,82.35
2022-10-15T06:42:02.673Z,82.50
2022-10-15T06:44:38.568Z,86.53
2022-10-15T06:47:05.280Z,90.25
2022-10-15T06:49:31.828Z,80.00
2022-10-15T06:52:02.664Z,93.32
2022-10-15T06:54:30.749Z,85.00
2022-10-15T06:56:57.308Z,81.78
2022-10-15T06:59:23.972Z,81.80
2022-10-15T07:01:50.521Z,72.88
2022-10-15T07:04:17.098Z,77.03
2022-10-15T07:06:43.787Z,74.40
2022-10-15T07:09:10.469Z,76.03
2022-10-15T07:11:36.935Z,70.72
2022-10-15T07:14:03.514Z,67.70
2022-10-15T07:16:30.116Z,70.38
2022-10-15T07:18:56.668Z,68.47
2022-10-15T07:21:23.265Z,74.35
2022-10-15T07:23:50.276Z,69.47
2022-10-15T07:26:16.789Z,72.80
2022-10-15T07:28:43.347Z,65.50
2022-10-15T07:31:09.920Z,70.68
2022-10-15T07:33:36.666Z,61.97
2022-10-15T07:36:09.492Z,57.58
2022-10-15T07:38:36.409Z,62.17
2022-10-15T07:41:04.636Z,67.75
2022-10-15T07:43:32.965Z,66.68
2022-10-15T07:45:59.449Z,61.67
2022-10-15T07:48:26.509Z,65.55
2022-10-15T07:51:01.482Z,55.10
2022-10-15T07:53:28.276Z,57.92
2022-10-15T07:56:03.543Z,62.28
2022-10-15T07:58:34.556Z,58.28
2022-10-15T08:01:11.501Z,53.38
2022-10-15T08:03:38.280Z,51.22
2022-10-15T08:06:06.671Z,58.80
2022-10-15T08:08:34.701Z,52.45
2022-10-15T08:11:09.943Z,50.45
2022-10-15T08:13:38.903Z,55.10
2022-10-15T08:16:05.520Z,57.40
2022-10-15T08:18:32.072Z,58.40
2022-10-15T08:21:00.500Z,66.78
2022-10-15T08:23:27.981Z,52.65
2022-10-15T08:25:54.495Z,56.22
2022-10-15T08:28:21.124Z,53.60
2022-10-15T08:32:12.792Z,46.33
2022-10-15T08:34:39.464Z,50.55
2022-10-15T08:37:05.993Z,48.42
2022-10-15T08:39:32.572Z,50.70
2022-10-15T08:42:12.232Z,37.72
2022-10-15T08:44:49.989Z,46.15
2022-10-15T08:47:19.176Z,36.35
2022-10-15T08:49:50.713Z,38.65
2022-10-15T08:52:26.628Z,36.38
2022-10-15T08:54:55.684Z,34.38
2022-10-15T08:57:43.253Z,33.60
2022-10-15T09:00:52.552Z,35.88
2022-10-15T09:03:40.985Z,33.03
2022-10-15T09:06:21.532Z,32.10
2022-10-15T09:09:14.657Z,27.13
2022-10-15T09:11:48.089Z,33.70
2022-10-15T09:14:19.469Z,30.60
2022-10-15T09:16:49.356Z,31.50
2022-10-15T09:19:24.885Z,30.55
2022-10-15T09:21:52.772Z,36.05
2022-10-15T09:24:25.764Z,23.92
2022-10-15T09:27:08.709Z,30.33
2022-10-15T09:29:47.296Z,35.05
2022-10-15T09:32:53.459Z,30.42
2022-10-15T09:35:37.253Z,24.55
2022-10-15T09:38:43.809Z,30.45
2022-10-15T09:41:56.378Z,30.15
2022-10-15T09:44:28.336Z,24.55
2022-10-15T09:49:25.754Z,28.60
2022-10-15T09:52:20.704Z,26.35
2022-10-15T09:55:08.060Z,27.00
2022-10-15T09:57:37.708Z,25.08
2022-10-15T10:00:08.799Z,30.55
2022-10-15T10:02:42.577Z,31.10
2022-10-15T10:05:28.909Z,20.92
2022-10-15T10:08:22.662Z,22.42
2022-10-15T10:11:01.069Z,23.95
2022-10-15T10:13:33.872Z,20.73
2022-10-15T10:16:08.313Z,24.17
2022-10-15T10:18:37.513Z,25.52
2022-10-15T10:21:20.780Z,23.60
2022-10-15T10:26:14.564Z,24.05
2022-10-15T10:28:51.857Z,38.80
2022-10-15T10:31:32.216Z,23.17
2022-10-15T10:34:02.801Z,22.98
2022-10-15T10:36:34.091Z,20.35
2022-10-15T10:39:14.037Z,24.92
2022-10-15T10:42:01.920Z,25.63
2022-10-15T10:44:33.026Z,26.30
2022-10-15T10:49:51.552Z,25.33
2022-10-15T10:52:31.285Z,50.50
2022-10-15T10:54:59.408Z,23.83
2022-10-15T10:57:56.085Z,33.88
2022-10-15T11:00:25.414Z,40.70
2022-10-15T11:02:52.607Z,22.13
2022-10-15T11:05:26.680Z,21.55
2022-10-15T11:08:20.897Z,21.58
2022-10-15T11:11:12.588Z,20.05
2022-10-15T11:14:03.301Z,21.90
2022-10-15T11:16:29.908Z,16.80
2022-10-15T11:19:19.002Z,14.70
2022-10-15T11:21:55.644Z,18.02
2022-10-15T11:24:25.996Z,22.67
2022-10-15T11:27:31.992Z,25.58
2022-10-15T11:30:09.953Z,20.20
2022-10-15T11:33:23.886Z,20.55
2022-10-15T11:36:17.620Z,21.38
2022-10-15T11:38:54.326Z,19.20
2022-10-15T11:41:36.073Z,14.63
2022-10-15T11:44:26.371Z,16.35
2022-10-15T11:47:03.892Z,21.92
2022-10-15T11:49:37.542Z,11.63
2022-10-15T11:52:41.544Z,20.98
2022-10-15T11:55:29.035Z,13.98
2022-10-15T11:58:02.686Z,20.50
2022-10-15T12:00:39.790Z,18.02
2022-10-15T12:03:19.495Z,16.35
2022-10-15T12:08:18.005Z,30.80
2022-10-15T12:11:02.142Z,21.30
2022-10-15T12:13:41.389Z,21.67
2022-10-15T12:16:38.897Z,14.82
2022-10-15T12:19:21.802Z,18.48
2022-10-15T12:21:56.691Z,16.38
2022-10-15T12:24:38.313Z,16.33
2022-10-15T12:27:20.180Z,15.55
2022-10-15T12:29:53.532Z,18.83
2022-10-15T12:32:30.953Z,15.90
2022-10-15T12:35:00.294Z,18.42
2022-10-15T12:37:29.127Z,19.25
2022-10-15T12:39:59.805Z,15.02
2022-10-15T12:42:37.812Z,17.77
2022-10-15T12:45:08.054Z,18.20
2022-10-15T12:47:54.025Z,15.60
2022-10-15T12:50:31.023Z,21.30
2022-10-15T12:53:02.775Z,21.27
2022-10-15T12:55:36.860Z,41.40
2022-10-15T12:58:33.689Z,80.97
2022-10-15T13:01:12.907Z,52.83
2022-10-15T13:03:48.510Z,65.47
2022-10-15T13:06:22.703Z,29.13
2022-10-15T13:08:52.190Z,23.83
2022-10-15T13:11:35.587Z,23.25
2022-10-15T13:14:15.210Z,20.00
2022-10-15T13:16:47.124Z,19.25
2022-10-15T13:21:58.126Z,58.70
2022-10-15T13:24:31.242Z,36.53
2022-10-15T13:27:00.681Z,19.77
2022-10-15T13:29:28.452Z,18.58
2022-10-15T13:31:57.599Z,41.25
2022-10-15T13:34:26.429Z,52.92
2022-10-15T13:36:55.517Z,45.58
2022-10-15T13:39:38.933Z,118.35
2022-10-15T13:42:23.071Z,146.15
2022-10-15T13:45:01.803Z,110.18
2022-10-15T13:47:28.431Z,48.00
2022-10-15T13:50:19.743Z,26.20
2022-10-15T13:52:52.312Z,18.60
2022-10-15T13:55:31.061Z,20.00
2022-10-15T13:58:14.042Z,17.23
2022-10-15T14:00:41.754Z,24.55
2022-10-15T14:03:14.471Z,20.42
2022-10-15T14:05:42.408Z,24.85
2022-10-15T14:08:21.226Z,22.00
2022-10-15T14:10:49.189Z,22.42
2022-10-15T14:13:18.890Z,19.35
2022-10-15T14:16:00.537Z,18.83
2022-10-15T14:18:34.258Z,17.85
2022-10-15T14:21:02.327Z,22.45
2022-10-15T14:23:29.512Z,25.10
2022-10-15T14:25:59.757Z,19.23
2022-10-15T14:28:28.152Z,20.48
2022-10-15T14:30:55.620Z,19.45
2022-10-15T14:33:37.375Z,17.10
2022-10-15T14:36:25.670Z,20.55
2022-10-15T14:38:53.906Z,24.27
2022-10-15T14:44:18.369Z,18.90
2022-10-15T14:46:49.584Z,20.95
2022-10-15T14:49:21.841Z,20.83
2022-10-15T14:52:17.205Z,21.92
2022-10-15T14:54:57.256Z,19.40
2022-10-15T14:57:27.510Z,33.15
2022-10-15T14:59:55.977Z,32.30
2022-10-15T15:02:26.812Z,30.52
2022-10-15T15:05:12.035Z,24.20
2022-10-15T15:09:14.207Z,25.52
2022-10-15T15:11:41.136Z,28.98
2022-10-15T15:16:40.214Z,40.15
2022-10-15T15:19:09.004Z,28.05
2022-10-15T15:23:56.764Z,32.67
2022-10-15T15:26:24.485Z,30.50
2022-10-15T15:28:51.080Z,27.92
2022-10-15T15:31:18.742Z,29.67
2022-10-15T15:33:45.616Z,26.77
2022-10-15T15:36:12.349Z,29.15
2022-10-15T15:38:39.193Z,38.50
2022-10-15T15:41:20.138Z,29.70
2022-10-15T15:43:48.348Z,29.00
2022-10-15T15:46:15.166Z,39.25
2022-10-15T15:48:41.806Z,43.97
2022-10-15T15:51:24.889Z,39.00
2022-10-15T15:53:52.167Z,40.40
2022-10-15T15:56:18.708Z,32.92
2022-10-15T15:58:45.701Z,33.83
2022-10-15T16:01:12.574Z,36.17
2022-10-15T16:03:39.279Z,31.83
2022-10-15T16:08:26.245Z,35.42
2022-10-15T16:10:52.888Z,41.03
2022-10-15T16:13:19.452Z,40.70
2022-10-15T16:15:46.075Z,37.53
2022-10-15T16:18:12.592Z,28.75
2022-10-15T16:20:46.375Z,39.95
2022-10-15T16:23:15.921Z,43.58
2022-10-15T16:25:42.508Z,44.15
2022-10-15T16:28:09.388Z,38.47
2022-10-15T16:30:38.918Z,46.63
2022-10-15T16:33:09.943Z,42.58
2022-10-15T16:35:36.773Z,40.33
2022-10-15T16:38:03.356Z,40.28
2022-10-15T16:40:29.952Z,40.13
2022-10-15T16:42:56.564Z,35.10
2022-10-15T16:45:23.946Z,30.40
2022-10-15T16:47:52.065Z,35.78
2022-10-15T16:50:18.685Z,43.00
2022-10-15T16:52:45.288Z,38.67
2022-10-15T16:55:11.937Z,40.92
2022-10-15T16:57:38.478Z,33.72
2022-10-15T17:00:06.854Z,46.22
2022-10-15T17:02:33.374Z,34.83
2022-10-15T17:04:59.994Z,36.92
2022-10-15T17:07:27.275Z,55.40
2022-10-15T17:09:54.058Z,37.60
2022-10-15T17:12:21.088Z,34.05
2022-10-15T17:14:51.587Z,29.48
2022-10-15T17:17:18.540Z,30.35
2022-10-15T17:19:45.051Z,32.90
2022-10-15T17:22:11.686Z,33.90
2022-10-15T17:24:38.243Z,28.67
2022-10-15T17:27:05.491Z,32.95
2022-10-15T17:29:33.556Z,30.92
2022-10-15T17:32:01.708Z,35.20
2022-10-15T17:34:28.233Z,35.42
2022-10-15T17:36:56.113Z,31.98
2022-10-15T17:39:23.480Z,31.52
2022-10-15T17:41:51.695Z,31.13
2022-10-15T17:44:18.588Z,35.75
2022-10-15T17:46:45.338Z,30.88
2022-10-15T17:49:13.905Z,34.08
2022-10-15T17:51:40.527Z,29.80
2022-10-15T17:54:07.115Z,32.90
2022-10-15T17:56:36.315Z,29.70
2022-10-15T17:59:05.032Z,29.25
2022-10-15T18:01:57.211Z,36.88
2022-10-15T18:06:47.672Z,49.67
2022-10-15T18:09:23.553Z,38.35
2022-10-15T18:11:50.507Z,58.83
2022-10-15T18:14:17.252Z,78.07
2022-10-15T18:16:44.273Z,67.68
2022-10-15T18:19:11.039Z,50.75
2022-10-15T18:21:37.685Z,43.70
2022-10-15T18:24:04.265Z,42.30
2022-10-15T18:26:30.919Z,47.10
2022-10-15T18:28:57.488Z,40.42
2022-10-15T18:31:26.055Z,37.72
2022-10-15T18:33:55.532Z,37.63
2022-10-15T18:36:28.065Z,36.03
2022-10-15T18:38:55.665Z,38.45
2022-10-15T18:41:23.756Z,62.85
2022-10-15T18:43:58.600Z,103.97
2022-10-15T18:46:31.036Z,76.68
2022-10-15T18:48:58.192Z,61.50
2022-10-15T18:51:26.276Z,60.28
2022-10-15T18:53:53.372Z,71.95
2022-10-15T18:58:38.900Z,76.43
2022-10-15T19:01:24.803Z,62.35
2022-10-15T19:03:52.700Z,56.70
2022-10-15T19:06:25.273Z,43.42
2022-10-15T19:08:52.239Z,39.25
2022-10-15T19:11:19.474Z,34.92
2022-10-15T19:13:46.105Z,32.72
2022-10-15T19:16:12.972Z,31.88
2022-10-15T19:18:40.079Z,33.65
2022-10-15T19:21:06.849Z,34.17
2022-10-15T19:23:34.545Z,36.95
2022-10-15T19:26:01.745Z,32.50
2022-10-15T19:28:29.130Z,29.77
2022-10-15T19:31:01.276Z,32.80
2022-10-15T19:35:58.332Z,34.10
2022-10-15T19:38:26.069Z,38.80
2022-10-15T19:40:53.877Z,32.60
2022-10-15T19:45:43.113Z,32.70
2022-10-15T19:48:11.818Z,30.30
2022-10-15T19:50:40.816Z,28.48
2022-10-15T19:53:09.741Z,25.42
2022-10-15T19:55:40.252Z,26.80
2022-10-15T19:58:07.555Z,24.35
2022-10-15T20:00:34.531Z,30.17
2022-10-15T20:03:01.411Z,26.95
2022-10-15T20:05:27.994Z,38.45
2022-10-15T20:07:54.816Z,38.85
2022-10-15T20:10:25.573Z,31.65
2022-10-15T20:12:53.811Z,25.45
2022-10-15T20:15:20.572Z,23.95
2022-10-15T20:19:58.928Z,24.80
2022-10-15T20:22:25.921Z,24.60
2022-10-15T20:24:52.773Z,24.35
2022-10-15T20:27:19.393Z,28.25
2022-10-15T20:29:46.085Z,33.40
2022-10-15T20:32:30.220Z,29.88
2022-10-15T20:35:00.608Z,33.38
2022-10-15T20:37:27.197Z,42.90
2022-10-15T20:39:53.841Z,39.88
2022-10-15T20:42:20.478Z,37.50
2022-10-15T20:44:47.117Z,31.13
2022-10-15T20:47:15.203Z,27.15
2022-10-15T20:49:45.911Z,26.63
2022-10-15T20:52:13.756Z,25.20
2022-10-15T20:54:40.321Z,20.48
2022-10-15T20:57:07.547Z,20.95
2022-10-15T20:59:34.064Z,18.83
2022-10-15T21:04:13.969Z,26.70
2022-10-15T21:06:40.630Z,25.80
2022-10-15T21:09:07.200Z,29.05
2022-10-15T21:11:33.912Z,29.40
2022-10-15T21:14:01.520Z,26.52
2022-10-15T21:16:28.573Z,36.67
2022-10-15T21:18:55.448Z,56.90
2022-10-15T21:21:22.064Z,76.18
2022-10-15T21:23:48.611Z,47.30
2022-10-15T21:26:17.489Z,41.95
2022-10-15T21:28:45.080Z,47.35
2022-10-15T21:31:15.654Z,54.38
2022-10-15T21:33:43.424Z,52.72
2022-10-15T21:36:24.310Z,59.05
2022-10-15T21:41:10.425Z,57.92
2022-10-15T21:43:37.076Z,58.55
2022-10-15T21:46:05.851Z,57.13
2022-10-15T21:48:32.853Z,49.58
2022-10-15T21:50:59.359Z,42.80
2022-10-15T21:53:25.963Z,39.45
2022-10-15T21:55:53.846Z,33.55
2022-10-15T21:58:21.092Z,37.17
2022-10-15T22:00:48.176Z,37.95
2022-10-15T22:03:15.147Z,35.83
2022-10-15T22:05:41.631Z,44.88
2022-10-15T22:08:08.468Z,52.90
2022-10-15T22:10:36.648Z,118.57
2022-10-15T22:13:04.088Z,90.07
2022-10-15T22:15:33.045Z,52.88
2022-10-15T22:17:59.720Z,72.43
2022-10-15T22:20:26.451Z,85.65
2022-10-15T22:22:54.635Z,105.30
2022-10-15T22:25:21.320Z,100.32
2022-10-15T22:27:47.901Z,89.55
2022-10-15T22:30:14.476Z,97.45
2022-10-15T22:32:41.088Z,94.93
2022-10-15T22:35:07.904Z,97.13
2022-10-15T22:37:34.444Z,91.28
2022-10-15T22:40:01.320Z,103.80
2022-10-15T22:42:28.100Z,86.63
2022-10-15T22:44:54.789Z,92.75
2022-10-15T22:47:21.367Z,88.82
2022-10-15T22:49:47.882Z,90.85
2022-10-15T22:52:14.439Z,90.68
2022-10-15T22:54:41.024Z,87.78
2022-10-15T22:57:07.641Z,79.72
2022-10-15T22:59:34.244Z,85.43
2022-10-15T23:02:00.891Z,77.63
2022-10-15T23:04:27.465Z,65.70
2022-10-15T23:06:53.984Z,56.70
2022-10-15T23:09:21.884Z,42.28
2022-10-15T23:11:48.546Z,34.05
2022-10-15T23:14:16.409Z,37.97
2022-10-15T23:16:45.977Z,32.50
2022-10-15T23:19:18.087Z,32.80
2022-10-15T23:21:48.888Z,34.25
2022-10-15T23:24:16.880Z,35.55
2022-10-15T23:26:43.831Z,25.20
2022-10-15T23:29:15.329Z,32.50
2022-10-15T23:31:42.070Z,31.40
2022-10-15T23:34:13.653Z,29.77
2022-10-15T23:36:40.416Z,29.13
2022-10-15T23:39:06.964Z,32.85
2022-10-15T23:41:33.572Z,29.95
2022-10-15T23:44:00.261Z,36.47
2022-10-15T23:46:26.849Z,28.58
2022-10-15T23:48:53.485Z,31.42
2022-10-15T23:51:28.518Z,30.73
2022-10-15T23:53:57.218Z,26.30
2022-10-15T23:56:24.728Z,29.20
2022-10-15T23:58:59.699Z,29.30
